Time;durP1;ratioP1;P1;durP2;ratioP2;P2;SDS_P1;SDS_P2;PMS_P1;PMS_P2;Temp;Humidity;BMP_temperature;BMP_pressure;BME280_temperature;BME280_humidity;BME280_pressure;Samples;Min_cycle;Max_cycle;Signal;HPM_P1;HPM_P2
2023/10/21 00:02:19;;;;;;;;;;;;;;;14.72;100.00;96583.15;136014;1272;23308;-81
2023/10/21 00:05:21;;;;;;;;;;;;;;;14.69;100.00;96587.13;136084;1260;22540;-81
2023/10/21 00:08:24;;;;;;;;;;;;;;;14.67;100.00;96592.81;135595;1272;22501;-82
2023/10/21 00:11:26;;;;;;;;;;;;;;;14.65;100.00;96596.02;135649;1272;24344;-81
2023/10/21 00:14:29;;;;;;;;;;;;;;;14.63;100.00;96598.02;135625;1272;22520;-79
2023/10/21 00:17:31;;;;;;;;;;;;;;;14.64;100.00;96599.38;135562;1272;22518;-80
2023/10/21 00:20:33;;;;;;;;;;;;;;;14.64;100.00;96601.84;135490;1272;22529;-78
2023/10/21 00:23:36;;;;;;;;;;;;;;;14.65;100.00;96604.09;135404;1272;22561;-79
2023/10/21 00:26:38;;;;;;;;;;;;;;;14.66;100.00;96611.05;135499;1272;22527;-81
2023/10/21 00:29:41;;;;;;;;;;;;;;;14.65;100.00;96617.90;135483;1272;22508;-79
2023/10/21 00:32:43;;;;;;;;;;;;;;;14.66;100.00;96618.57;135507;1272;22577;-80
2023/10/21 00:35:46;;;;;;;;;;;;;;;14.69;100.00;96621.80;135725;1272;22515;-82
2023/10/21 00:38:48;;;;;;;;;;;;;;;14.70;100.00;96623.84;135765;1270;22507;-82
2023/10/21 00:41:51;;;;;;;;;;;;;;;14.71;100.00;96620.84;135755;1272;22591;-83
2023/10/21 00:44:53;;;;;;;;;;;;;;;14.73;100.00;96622.00;135890;1272;22703;-82
2023/10/21 00:47:55;;;;;;;;;;;;;;;14.75;100.00;96623.86;135751;1272;22622;-82
2023/10/21 00:50:58;;;;;;;;;;;;;;;14.77;100.00;96624.30;135901;1272;24180;-80
2023/10/21 00:54:00;;;;;;;;;;;;;;;14.78;100.00;96625.66;135592;1272;22511;-82
2023/10/21 00:57:03;;;;;;;;;;;;;;;14.77;100.00;96633.95;135724;1272;22507;-83
2023/10/21 01:00:10;;;;;;;;;;;;;;;14.75;100.00;96640.50;135768;1272;22524;-82
2023/10/21 01:03:13;;;;;;;;;;;;;;;14.73;100.00;96640.02;135786;1272;22499;-82
2023/10/21 01:06:16;;;;;;;;;;;;;;;14.72;100.00;96642.52;135707;1272;24204;-83
2023/10/21 01:09:18;;;;;;;;;;;;;;;14.69;100.00;96656.27;135781;1272;22511;-82
2023/10/21 01:12:21;;;;;;;;;;;;;;;14.66;100.00;96660.41;135716;1272;22633;-82
2023/10/21 01:15:24;;;;;;;;;;;;;;;14.65;100.00;96664.13;135824;1272;22540;-81
2023/10/21 01:18:30;;;;;;;;;;;;;;;14.64;100.00;96665.73;135780;1272;25923;-81
2023/10/21 01:21:32;;;;;;;;;;;;;;;14.64;100.00;96669.58;135850;1272;22518;-81
2023/10/21 01:24:35;;;;;;;;;;;;;;;14.63;100.00;96668.39;135903;1272;22523;-82
2023/10/21 01:27:37;;;;;;;;;;;;;;;14.63;100.00;96672.25;136058;1272;22452;-82
2023/10/21 01:30:40;;;;;;;;;;;;;;;14.63;100.00;96674.52;135777;1269;22521;-81
2023/10/21 01:33:42;;;;;;;;;;;;;;;14.64;100.00;96672.41;135764;1272;22563;-83
2023/10/21 01:36:44;;;;;;;;;;;;;;;14.64;100.00;96676.59;135970;1272;22515;-81
2023/10/21 01:39:47;;;;;;;;;;;;;;;14.64;100.00;96679.58;135939;1272;22534;-83
2023/10/21 01:42:49;;;;;;;;;;;;;;;14.64;100.00;96688.65;136182;1272;22712;-81
2023/10/21 01:45:52;;;;;;;;;;;;;;;14.65;100.00;96695.30;136188;1272;25832;-81
2023/10/21 01:48:54;;;;;;;;;;;;;;;14.69;100.00;96692.19;136051;1272;22502;-80
2023/10/21 01:51:57;;;;;;;;;;;;;;;14.72;100.00;96695.58;136061;1272;24202;-81
2023/10/21 01:54:59;;;;;;;;;;;;;;;14.73;100.00;96690.27;135934;1272;22463;-81
2023/10/21 01:58:01;;;;;;;;;;;;;;;14.74;100.00;96691.81;136023;1272;22535;-80
2023/10/21 02:01:04;;;;;;;;;;;;;;;14.76;100.00;96697.35;135904;1272;22552;-81
2023/10/21 02:04:06;;;;;;;;;;;;;;;14.78;100.00;96703.07;135527;1272;22503;-81
2023/10/21 02:07:09;;;;;;;;;;;;;;;14.77;100.00;96705.36;135468;1272;23071;-80
2023/10/21 02:10:12;;;;;;;;;;;;;;;14.77;100.00;96708.52;135596;1272;24890;-81
2023/10/21 02:13:14;;;;;;;;;;;;;;;14.78;100.00;96704.61;135568;1272;22954;-80
2023/10/21 02:16:16;;;;;;;;;;;;;;;14.80;100.00;96701.20;135598;1272;22511;-80
2023/10/21 02:19:19;;;;;;;;;;;;;;;14.81;100.00;96701.55;135501;1272;25288;-80
2023/10/21 02:22:21;;;;;;;;;;;;;;;14.80;100.00;96702.80;135610;1272;22554;-81
2023/10/21 02:25:24;;;;;;;;;;;;;;;14.78;100.00;96707.42;135887;1272;26328;-80
2023/10/21 02:28:26;;;;;;;;;;;;;;;14.77;100.00;96711.14;136314;1272;22895;-81
2023/10/21 02:31:29;;;;;;;;;;;;;;;14.77;100.00;96718.85;136756;1272;22476;-80
2023/10/21 02:34:31;;;;;;;;;;;;;;;14.75;100.00;96725.38;136728;1272;22520;-81
2023/10/21 02:37:34;;;;;;;;;;;;;;;14.75;100.00;96734.84;136683;1272;24165;-79
2023/10/21 02:40:37;;;;;;;;;;;;;;;14.72;100.00;96741.78;136145;1272;22461;-79
2023/10/21 02:43:40;;;;;;;;;;;;;;;14.71;100.00;96745.86;136029;1272;22508;-78
2023/10/21 02:46:42;;;;;;;;;;;;;;;14.70;100.00;96742.04;135887;1272;22604;-79
2023/10/21 02:49:45;;;;;;;;;;;;;;;14.68;100.00;96733.36;135811;1272;24782;-79
2023/10/21 02:52:49;;;;;;;;;;;;;;;14.67;100.00;96734.77;135634;1272;25907;-82
2023/10/21 02:55:52;;;;;;;;;;;;;;;14.65;100.00;96738.00;135806;1272;22565;-80
2023/10/21 02:58:57;;;;;;;;;;;;;;;14.63;100.00;96746.11;135551;1272;22519;-79
2023/10/21 03:01:59;;;;;;;;;;;;;;;14.60;100.00;96742.38;135583;1272;22536;-79
2023/10/21 03:05:02;;;;;;;;;;;;;;;14.58;100.00;96744.92;135543;1272;22525;-80
2023/10/21 03:08:04;;;;;;;;;;;;;;;14.56;100.00;96742.91;135504;1272;24205;-80
2023/10/21 03:11:07;;;;;;;;;;;;;;;14.52;100.00;96738.66;135990;1272;22524;-81
2023/10/21 03:14:10;;;;;;;;;;;;;;;14.48;100.00;96743.71;135888;1272;23235;-81
2023/10/21 03:17:12;;;;;;;;;;;;;;;14.40;100.00;96755.88;135835;1272;22511;-81
2023/10/21 03:20:15;;;;;;;;;;;;;;;14.35;100.00;96760.97;135897;1272;22514;-81
2023/10/21 03:23:18;;;;;;;;;;;;;;;14.33;100.00;96765.05;135770;1272;22538;-80
2023/10/21 03:26:21;;;;;;;;;;;;;;;14.32;100.00;96763.86;135844;1272;24346;-80
2023/10/21 03:29:23;;;;;;;;;;;;;;;14.35;100.00;96762.90;135810;1272;22526;-79
2023/10/21 03:32:26;;;;;;;;;;;;;;;14.41;100.00;96770.21;135535;1272;25198;-81
2023/10/21 03:35:28;;;;;;;;;;;;;;;14.43;100.00;96770.14;135494;1272;22881;-80
2023/10/21 03:38:31;;;;;;;;;;;;;;;14.42;100.00;96775.59;135479;1272;22543;-80
2023/10/21 03:41:33;;;;;;;;;;;;;;;14.42;100.00;96784.71;135442;1272;22600;-80
2023/10/21 03:44:36;;;;;;;;;;;;;;;14.43;100.00;96783.63;135410;1272;22512;-80
2023/10/21 03:47:41;;;;;;;;;;;;;;;14.45;100.00;96792.48;135373;1272;22456;-80
2023/10/21 03:50:44;;;;;;;;;;;;;;;14.47;100.00;96789.26;136224;1272;22555;-80
2023/10/21 03:53:47;;;;;;;;;;;;;;;14.50;100.00;96789.14;136521;1272;22972;-80
2023/10/21 03:56:51;;;;;;;;;;;;;;;14.54;100.00;96789.50;136362;1272;22546;-78
2023/10/21 03:59:53;;;;;;;;;;;;;;;14.58;100.00;96803.22;135468;1272;22514;-78
2023/10/21 04:02:56;;;;;;;;;;;;;;;14.60;100.00;96812.22;135369;1272;22752;-79
2023/10/21 04:05:58;;;;;;;;;;;;;;;14.62;100.00;96815.12;135416;1269;22534;-79
2023/10/21 04:09:02;;;;;;;;;;;;;;;14.61;100.00;96814.80;135350;1272;22535;-80
2023/10/21 04:12:05;;;;;;;;;;;;;;;14.62;100.00;96808.83;135320;1272;22642;-79
2023/10/21 04:15:08;;;;;;;;;;;;;;;14.65;100.00;96797.15;135316;1272;22701;-79
2023/10/21 04:18:10;;;;;;;;;;;;;;;14.69;100.00;96793.73;135381;1272;22516;-80
2023/10/21 04:21:13;;;;;;;;;;;;;;;14.70;100.00;96803.48;135399;1272;22640;-79
2023/10/21 04:24:16;;;;;;;;;;;;;;;14.81;100.00;96812.52;135365;1272;24141;-78
2023/10/21 04:27:18;;;;;;;;;;;;;;;15.96;100.00;96808.88;135302;1272;25991;-78
2023/10/21 04:30:21;;;;;;;;;;;;;;;17.15;100.00;96806.48;135336;1272;22569;-82
2023/10/21 04:33:23;;;;;;;;;;;;;;;17.69;100.00;96808.88;136218;1272;22998;-82
2023/10/21 04:36:26;;;;;;;;;;;;;;;18.18;100.00;96800.98;136324;1272;22546;-83
2023/10/21 04:39:29;;;;;;;;;;;;;;;18.52;100.00;96794.31;136324;1272;22956;-80
2023/10/21 04:42:32;;;;;;;;;;;;;;;18.22;100.00;96802.00;136273;1272;23063;-79
2023/10/21 04:45:34;;;;;;;;;;;;;;;18.34;100.00;96820.27;135374;1272;22658;-81
2023/10/21 04:48:37;;;;;;;;;;;;;;;18.49;100.00;96822.65;135133;1272;26259;-83
2023/10/21 04:51:39;;;;;;;;;;;;;;;18.18;100.00;96830.55;135283;1272;26000;-79
2023/10/21 04:54:42;;;;;;;;;;;;;;;17.83;100.00;96841.63;135458;1272;22617;-81
2023/10/21 04:57:44;;;;;;;;;;;;;;;17.93;100.00;96848.54;135450;1272;22603;-82
2023/10/21 05:00:47;;;;;;;;;;;;;;;18.36;100.00;96849.05;136298;1272;22540;-83
2023/10/21 05:03:49;;;;;;;;;;;;;;;18.56;100.00;96865.30;136509;1272;26230;-80
2023/10/21 05:06:52;;;;;;;;;;;;;;;18.67;100.00;96866.85;135339;1272;23004;-82
2023/10/21 05:09:54;;;;;;;;;;;;;;;18.84;100.00;96879.71;136210;1272;22509;-79
2023/10/21 05:12:57;;;;;;;;;;;;;;;18.99;100.00;96891.95;135380;1269;23394;-79
2023/10/21 05:15:59;;;;;;;;;;;;;;;19.04;100.00;96893.24;135184;1272;22447;-79
2023/10/21 05:19:02;;;;;;;;;;;;;;;19.04;100.00;96908.77;135188;1269;23014;-81
2023/10/21 05:22:04;;;;;;;;;;;;;;;19.13;100.00;96921.95;136634;1272;22542;-80
2023/10/21 05:25:06;;;;;;;;;;;;;;;19.07;100.00;96929.42;135058;1272;22552;-80
2023/10/21 05:28:10;;;;;;;;;;;;;;;19.16;100.00;96931.30;135123;1272;22581;-80
2023/10/21 05:31:12;;;;;;;;;;;;;;;19.17;100.00;96926.81;136547;1272;22562;-79
2023/10/21 05:34:18;;;;;;;;;;;;;;;19.10;100.00;96933.35;135252;1272;22976;-79
2023/10/21 05:37:20;;;;;;;;;;;;;;;19.11;100.00;96942.30;135928;1272;25236;-80
2023/10/21 05:40:23;;;;;;;;;;;;;;;18.67;100.00;96952.08;135624;1272;22511;-79
2023/10/21 05:43:28;;;;;;;;;;;;;;;18.07;100.00;96959.76;135585;1272;25293;-80
2023/10/21 05:46:30;;;;;;;;;;;;;;;17.59;100.00;96960.94;135537;1272;22587;-80
2023/10/21 05:49:33;;;;;;;;;;;;;;;17.21;100.00;96968.10;135341;1272;22508;-80
2023/10/21 05:52:35;;;;;;;;;;;;;;;16.94;100.00;96978.40;135490;1269;22538;-80
2023/10/21 05:55:38;;;;;;;;;;;;;;;16.73;100.00;96989.67;135460;1272;22572;-80
2023/10/21 05:58:41;;;;;;;;;;;;;;;16.56;100.00;96999.48;135507;1272;22522;-80
2023/10/21 06:01:43;;;;;;;;;;;;;;;16.42;100.00;96997.05;135571;1272;22520;-80
2023/10/21 06:04:46;;;;;;;;;;;;;;;16.33;100.00;96990.23;135409;1272;23250;-79
2023/10/21 06:07:48;;;;;;;;;;;;;;;16.28;100.00;96986.58;135451;1272;22620;-79
2023/10/21 06:10:51;;;;;;;;;;;;;;;16.19;100.00;96998.52;135458;1272;22521;-79
2023/10/21 06:13:53;;;;;;;;;;;;;;;16.16;100.00;97005.13;135334;1272;22511;-79
2023/10/21 06:16:56;;;;;;;;;;;;;;;16.16;100.00;97007.58;135334;1272;22561;-79
2023/10/21 06:19:58;;;;;;;;;;;;;;;16.17;100.00;97005.95;135304;1272;22697;-79
2023/10/21 06:23:01;;;;;;;;;;;;;;;16.18;100.00;97004.67;135265;1272;24974;-80
2023/10/21 06:26:03;;;;;;;;;;;;;;;16.17;100.00;97010.36;135317;1272;22505;-80
2023/10/21 06:29:06;;;;;;;;;;;;;;;16.16;100.00;97005.30;135151;1272;22688;-80
2023/10/21 06:32:09;;;;;;;;;;;;;;;16.14;100.00;97013.10;135208;1272;22540;-79
2023/10/21 06:35:12;;;;;;;;;;;;;;;16.13;100.00;97026.30;135183;1272;24997;-79
2023/10/21 06:38:14;;;;;;;;;;;;;;;16.13;100.00;97028.04;135562;1272;22515;-81
2023/10/21 06:41:17;;;;;;;;;;;;;;;16.18;100.00;97030.30;135546;1272;24913;-81
2023/10/21 06:44:19;;;;;;;;;;;;;;;16.19;100.00;97034.46;135517;1272;23290;-84
2023/10/21 06:47:22;;;;;;;;;;;;;;;16.18;100.00;97039.60;135560;1272;22519;-80
2023/10/21 06:50:24;;;;;;;;;;;;;;;16.19;100.00;97046.94;136348;1272;22878;-79
2023/10/21 06:53:27;;;;;;;;;;;;;;;16.26;100.00;97047.01;137240;1272;22557;-79
2023/10/21 06:56:29;;;;;;;;;;;;;;;16.37;100.00;97044.11;137271;1272;22537;-79
2023/10/21 06:59:32;;;;;;;;;;;;;;;16.46;100.00;97042.55;137197;1272;22593;-79
2023/10/21 07:02:34;;;;;;;;;;;;;;;16.52;100.00;97045.45;136401;1272;22631;-78
2023/10/21 07:05:37;;;;;;;;;;;;;;;16.58;100.00;97052.44;136555;1272;22735;-79
2023/10/21 07:08:39;;;;;;;;;;;;;;;16.65;100.00;97064.14;136296;1272;22508;-78
2023/10/21 07:11:42;;;;;;;;;;;;;;;16.71;100.00;97071.26;136147;1272;22562;-79
2023/10/21 07:14:44;;;;;;;;;;;;;;;16.78;100.00;97069.39;136019;1272;23167;-78
2023/10/21 07:17:47;;;;;;;;;;;;;;;16.84;100.00;97065.09;135623;1269;22526;-78
2023/10/21 07:20:50;;;;;;;;;;;;;;;16.87;100.00;97067.23;135187;1262;22930;-78
2023/10/21 07:23:53;;;;;;;;;;;;;;;16.90;100.00;97080.65;135161;1272;22881;-80
2023/10/21 07:26:55;;;;;;;;;;;;;;;16.89;100.00;97090.70;135133;1272;22514;-82
2023/10/21 07:29:58;;;;;;;;;;;;;;;16.89;100.00;97099.14;136213;1272;168627;-82
2023/10/21 07:33:01;;;;;;;;;;;;;;;16.91;100.00;97105.77;136198;1272;22596;-83
2023/10/21 07:36:04;;;;;;;;;;;;;;;16.92;100.00;97118.70;136131;1272;22556;-82
2023/10/21 07:39:07;;;;;;;;;;;;;;;16.94;100.00;97124.44;136093;1272;22515;-80
2023/10/21 07:42:10;;;;;;;;;;;;;;;16.96;100.00;97121.52;135423;1272;22551;-79
2023/10/21 07:45:14;;;;;;;;;;;;;;;17.02;100.00;97121.80;135476;1272;22655;-80
2023/10/21 07:48:17;;;;;;;;;;;;;;;17.10;100.00;97123.60;136003;1272;22867;-82
2023/10/21 07:51:20;;;;;;;;;;;;;;;17.16;100.00;97125.06;135938;1272;22550;-81
2023/10/21 07:54:22;;;;;;;;;;;;;;;17.25;100.00;97134.05;135917;1272;22537;-81
2023/10/21 07:57:25;;;;;;;;;;;;;;;17.31;100.00;97132.92;135884;1272;22528;-84
2023/10/21 08:00:27;;;;;;;;;;;;;;;17.35;100.00;97132.40;135942;1272;22464;-81
2023/10/21 08:03:30;;;;;;;;;;;;;;;17.39;100.00;97128.73;136027;1272;24222;-80
2023/10/21 08:06:33;;;;;;;;;;;;;;;17.44;100.00;97135.70;135397;1272;22643;-80
2023/10/21 08:09:38;;;;;;;;;;;;;;;17.51;100.00;97132.94;135410;1272;22508;-80
2023/10/21 08:12:41;;;;;;;;;;;;;;;17.58;100.00;97134.42;135350;1272;22653;-79
2023/10/21 08:15:46;;;;;;;;;;;;;;;17.64;100.00;97147.01;136431;1272;22934;-80
2023/10/21 08:18:50;;;;;;;;;;;;;;;17.70;100.00;97157.66;135333;1272;25479;-80
2023/10/21 08:21:52;;;;;;;;;;;;;;;17.80;100.00;97169.70;135231;1272;24219;-80
2023/10/21 08:24:55;;;;;;;;;;;;;;;17.95;100.00;97177.15;135279;1272;22622;-79
2023/10/21 08:27:57;;;;;;;;;;;;;;;18.11;100.00;97176.80;136387;1272;22530;-80
2023/10/21 08:31:00;;;;;;;;;;;;;;;18.28;100.00;97181.48;136301;1272;25329;-79
2023/10/21 08:34:03;;;;;;;;;;;;;;;18.47;100.00;97188.58;135355;1272;22523;-80
2023/10/21 08:37:07;;;;;;;;;;;;;;;18.62;100.00;97198.13;135465;1272;25925;-79
2023/10/21 08:40:10;;;;;;;;;;;;;;;18.74;100.00;97206.17;135996;1272;25450;-79
2023/10/21 08:43:13;;;;;;;;;;;;;;;18.85;100.00;97214.64;135512;1272;22533;-79
2023/10/21 08:46:16;;;;;;;;;;;;;;;18.95;100.00;97223.00;135515;1272;22574;-79
2023/10/21 08:49:19;;;;;;;;;;;;;;;19.03;100.00;97226.13;135555;1272;22507;-79
2023/10/21 08:52:22;;;;;;;;;;;;;;;19.14;100.00;97237.64;135504;1272;22618;-80
2023/10/21 08:55:24;;;;;;;;;;;;;;;19.26;100.00;97238.30;135533;1272;22531;-80
2023/10/21 08:58:29;;;;;;;;;;;;;;;19.40;100.00;97236.20;135522;1272;23223;-81
2023/10/21 09:01:32;;;;;;;;;;;;;;;19.53;100.00;97241.36;135516;1272;24583;-81
2023/10/21 09:04:34;;;;;;;;;;;;;;;19.65;100.00;97246.80;135546;1272;22528;-79
2023/10/21 09:07:37;;;;;;;;;;;;;;;19.71;100.00;97255.65;135418;1272;22495;-80
2023/10/21 09:10:39;;;;;;;;;;;;;;;19.76;100.00;97264.77;135402;1272;25453;-80
2023/10/21 09:13:42;;;;;;;;;;;;;;;19.83;100.00;97280.86;135380;1272;24541;-80
2023/10/21 09:16:44;;;;;;;;;;;;;;;19.89;100.00;97289.89;135423;1272;22544;-81
2023/10/21 09:19:47;;;;;;;;;;;;;;;19.99;100.00;97291.53;135443;1272;22584;-81
2023/10/21 09:22:51;;;;;;;;;;;;;;;20.13;100.00;97291.73;135213;1272;22753;-80
2023/10/21 09:25:54;;;;;;;;;;;;;;;20.24;100.00;97299.27;136638;1272;22539;-80
2023/10/21 09:28:57;;;;;;;;;;;;;;;20.33;100.00;97293.50;136593;1272;22521;-81
2023/10/21 09:31:59;;;;;;;;;;;;;;;20.42;100.00;97291.65;136610;1272;22525;-80
2023/10/21 09:35:02;;;;;;;;;;;;;;;20.38;100.00;97300.50;136600;1272;22531;-81
2023/10/21 09:38:04;;;;;;;;;;;;;;;20.37;100.00;97305.30;136054;1272;22521;-83
2023/10/21 09:41:07;;;;;;;;;;;;;;;20.45;100.00;97306.02;135894;1272;22643;-83
2023/10/21 09:44:10;;;;;;;;;;;;;;;20.50;100.00;97307.65;135931;1272;22611;-82
2023/10/21 09:47:14;;;;;;;;;;;;;;;20.60;100.00;97301.51;135923;1272;22524;-82
2023/10/21 09:50:18;;;;;;;;;;;;;;;20.70;100.00;97303.78;136022;1272;22528;-81
2023/10/21 09:53:20;;;;;;;;;;;;;;;20.74;100.00;97311.02;136026;1272;22522;-83
2023/10/21 09:56:23;;;;;;;;;;;;;;;20.74;100.00;97314.01;135940;1272;22530;-83
2023/10/21 09:59:25;;;;;;;;;;;;;;;20.71;100.00;97312.54;135991;1272;22531;-82
2023/10/21 10:02:28;;;;;;;;;;;;;;;20.64;100.00;97309.41;135947;1272;22531;-80
2023/10/21 10:05:30;;;;;;;;;;;;;;;20.60;100.00;97312.11;135497;1272;22734;-81
2023/10/21 10:08:34;;;;;;;;;;;;;;;20.58;100.00;97316.43;135280;1272;22525;-81
2023/10/21 10:11:36;;;;;;;;;;;;;;;20.63;100.00;97325.38;135292;1272;22561;-81
2023/10/21 10:14:39;;;;;;;;;;;;;;;20.66;100.00;97339.34;135160;1272;24524;-81
2023/10/21 10:17:41;;;;;;;;;;;;;;;20.70;100.00;97345.31;136498;1272;22511;-81
2023/10/21 10:20:43;;;;;;;;;;;;;;;20.80;100.00;97347.98;136455;1272;22552;-79
2023/10/21 10:23:46;;;;;;;;;;;;;;;20.94;100.00;97353.96;136493;1272;23490;-80
2023/10/21 10:26:49;;;;;;;;;;;;;;;21.04;100.00;97348.52;135904;1272;22511;-80
2023/10/21 10:29:51;;;;;;;;;;;;;;;21.03;100.00;97352.11;136326;1272;22573;-80
2023/10/21 10:32:55;;;;;;;;;;;;;;;21.07;100.00;97352.58;136554;1272;22523;-80
2023/10/21 10:35:57;;;;;;;;;;;;;;;21.11;100.00;97359.81;135070;1272;22981;-80
2023/10/21 10:39:00;;;;;;;;;;;;;;;21.18;100.00;97355.52;134983;1272;24288;-81
2023/10/21 10:42:02;;;;;;;;;;;;;;;21.29;100.00;97353.89;135030;1272;25490;-79
2023/10/21 10:45:05;;;;;;;;;;;;;;;21.29;100.00;97356.69;135230;1272;24642;-81
2023/10/21 10:48:08;;;;;;;;;;;;;;;21.23;100.00;97358.60;136103;1272;22544;-81
2023/10/21 10:51:13;;;;;;;;;;;;;;;21.32;100.00;97356.04;135524;1272;22639;-80
2023/10/21 10:54:17;;;;;;;;;;;;;;;21.55;100.00;97368.02;135913;1272;22546;-78
2023/10/21 10:57:20;;;;;;;;;;;;;;;21.68;100.00;97378.09;135944;1272;22517;-79
2023/10/21 11:00:22;;;;;;;;;;;;;;;21.67;100.00;97378.36;135431;1272;23399;-80
2023/10/21 11:03:27;;;;;;;;;;;;;;;21.72;100.00;97379.48;135350;1272;22454;-79
2023/10/21 11:06:29;;;;;;;;;;;;;;;21.85;100.00;97375.21;135346;1267;22541;-79
2023/10/21 11:09:33;;;;;;;;;;;;;;;22.04;100.00;97385.09;135361;1272;22532;-80
2023/10/21 11:12:38;;;;;;;;;;;;;;;22.04;100.00;97391.48;135266;1272;22814;-80
2023/10/21 11:15:41;;;;;;;;;;;;;;;22.03;100.00;97397.91;135235;1272;22533;-82
2023/10/21 11:18:44;;;;;;;;;;;;;;;22.07;100.00;97404.42;135275;1272;22705;-81
2023/10/21 11:21:49;;;;;;;;;;;;;;;22.17;100.00;97403.36;135283;1272;25012;-80
2023/10/21 11:24:54;;;;;;;;;;;;;;;22.30;100.00;97405.45;136187;1272;22535;-81
2023/10/21 11:27:57;;;;;;;;;;;;;;;22.24;100.00;97415.70;136010;1272;22578;-80
2023/10/21 11:31:01;;;;;;;;;;;;;;;22.22;100.00;97415.81;136090;1272;22519;-80
2023/10/21 11:34:03;;;;;;;;;;;;;;;22.29;100.00;97421.60;135526;1272;22511;-80
2023/10/21 11:37:06;;;;;;;;;;;;;;;22.25;100.00;97422.17;135521;1272;25274;-80
2023/10/21 11:40:09;;;;;;;;;;;;;;;22.21;100.00;97429.98;136153;1272;22507;-80
2023/10/21 11:43:13;;;;;;;;;;;;;;;22.21;100.00;97432.48;135613;1272;22535;-80
2023/10/21 11:46:15;;;;;;;;;;;;;;;22.26;100.00;97437.70;135575;1272;22596;-80
2023/10/21 11:49:19;;;;;;;;;;;;;;;22.30;100.00;97435.70;135540;1272;23091;-81
2023/10/21 11:52:22;;;;;;;;;;;;;;;22.33;100.00;97444.92;136186;1272;22556;-80
2023/10/21 12:00:14;;;;;;;;;;;;;;;21.94;100.00;97443.20;136639;1272;22525;-79
2023/10/21 12:03:19;;;;;;;;;;;;;;;21.82;100.00;97442.15;136749;1272;22607;-79
2023/10/21 12:16:29;;;;;;;;;;;;;;;22.02;100.00;97475.37;135295;1281;22873;-78
2023/10/21 12:19:53;;;;;;;;;;;;;;;22.12;100.00;97477.15;134920;1281;24307;-80
2023/10/21 12:23:36;;;;;;;;;;;;;;;22.23;100.00;97477.21;134594;1281;22536;-79
2023/10/21 12:26:55;;;;;;;;;;;;;;;22.25;100.00;97482.06;135019;1281;22524;-79
2023/10/21 12:30:44;;;;;;;;;;;;;;;22.16;100.00;97488.04;135120;1281;22895;-80
2023/10/21 12:33:59;;;;;;;;;;;;;;;22.08;100.00;97497.23;135117;1281;22540;-81
2023/10/21 12:40:35;;;;;;;;;;;;;;;22.00;100.00;97512.87;134277;1288;25378;-79
2023/10/21 12:43:38;;;;;;;;;;;;;;;22.05;100.00;97518.27;133974;1288;25976;-80
2023/10/21 12:46:41;;;;;;;;;;;;;;;22.09;100.00;97522.84;134159;1283;22533;-82
2023/10/21 12:49:45;;;;;;;;;;;;;;;22.14;100.00;97526.80;134894;1277;22575;-81
2023/10/21 12:52:48;;;;;;;;;;;;;;;22.18;100.00;97528.19;134999;1278;22512;-82
2023/10/21 12:55:50;;;;;;;;;;;;;;;22.25;100.00;97522.84;135406;1278;22772;-80
2023/10/21 12:58:53;;;;;;;;;;;;;;;22.28;100.00;97535.59;135408;1278;22588;-80
2023/10/21 13:01:55;;;;;;;;;;;;;;;22.21;100.00;97538.98;135348;1278;24202;-82
2023/10/21 13:04:58;;;;;;;;;;;;;;;22.10;100.00;97542.23;135314;1278;22541;-81
2023/10/21 13:08:07;;;;;;;;;;;;;;;21.98;100.00;97544.14;135382;1278;22504;-81
2023/10/21 13:11:11;;;;;;;;;;;;;;;21.95;100.00;97550.88;135519;1278;22526;-80
2023/10/21 13:14:13;;;;;;;;;;;;;;;21.87;100.00;97555.38;135416;1272;22600;-82
2023/10/21 13:17:18;;;;;;;;;;;;;;;21.82;100.00;97557.05;136091;1272;22520;-79
2023/10/21 13:20:20;;;;;;;;;;;;;;;21.86;100.00;97556.85;135548;1272;22525;-79
2023/10/21 13:23:23;;;;;;;;;;;;;;;21.87;100.00;97559.27;135681;1272;22511;-81
2023/10/21 13:26:26;;;;;;;;;;;;;;;21.86;100.00;97567.81;135835;1272;22519;-83
2023/10/21 13:29:29;;;;;;;;;;;;;;;21.80;100.00;97578.77;135845;1272;22535;-80
2023/10/21 13:32:32;;;;;;;;;;;;;;;21.75;100.00;97578.69;135812;1272;22521;-80
2023/10/21 13:35:38;;;;;;;;;;;;;;;21.74;100.00;97583.70;135858;1272;22512;-80
2023/10/21 13:38:40;;;;;;;;;;;;;;;21.73;100.00;97587.63;135747;1272;22518;-82
2023/10/21 13:41:43;;;;;;;;;;;;;;;21.72;100.00;97595.47;135808;1272;22521;-81
2023/10/21 13:44:46;;;;;;;;;;;;;;;21.73;100.00;97596.30;135795;1272;22526;-82
2023/10/21 13:47:48;;;;;;;;;;;;;;;21.62;100.00;97598.42;135777;1272;22511;-80
2023/10/21 13:50:53;;;;;;;;;;;;;;;21.59;100.00;97600.54;135794;1272;22517;-82
2023/10/21 13:53:55;;;;;;;;;;;;;;;21.66;100.00;97605.48;135800;1272;22500;-82
2023/10/21 13:57:03;;;;;;;;;;;;;;;21.72;100.00;97610.17;135840;1272;22518;-82
2023/10/21 14:00:21;;;;;;;;;;;;;;;21.68;100.00;97615.87;135824;1269;22522;-82
2023/10/21 14:03:27;;;;;;;;;;;;;;;21.60;100.00;97613.42;135784;1272;22558;-82
2023/10/21 14:06:33;;;;;;;;;;;;;;;21.61;100.00;97614.23;135899;1272;22498;-82
2023/10/21 14:09:36;;;;;;;;;;;;;;;21.70;100.00;97626.55;135821;1272;22511;-81
2023/10/21 14:12:39;;;;;;;;;;;;;;;21.71;100.00;97634.67;135837;1272;23591;-82
2023/10/21 14:15:42;;;;;;;;;;;;;;;21.62;100.00;97639.51;135861;1272;22538;-82
2023/10/21 14:18:46;;;;;;;;;;;;;;;21.52;100.00;97639.48;135789;1272;22531;-82
2023/10/21 14:21:52;;;;;;;;;;;;;;;21.43;100.00;97643.71;135702;1272;25387;-81
2023/10/21 14:24:58;;;;;;;;;;;;;;;21.39;100.00;97651.84;135794;1269;25915;-81
2023/10/21 14:28:00;;;;;;;;;;;;;;;21.47;100.00;97652.52;135832;1272;22559;-81
2023/10/21 14:31:06;;;;;;;;;;;;;;;21.45;100.00;97657.59;135778;1272;22523;-81
2023/10/21 14:34:09;;;;;;;;;;;;;;;21.31;100.00;97658.46;135866;1272;22507;-82
2023/10/21 14:37:12;;;;;;;;;;;;;;;21.19;100.00;97660.80;135913;1272;22555;-80
2023/10/21 14:40:16;;;;;;;;;;;;;;;21.21;100.00;97658.38;135892;1269;22523;-81
2023/10/21 14:43:18;;;;;;;;;;;;;;;21.26;100.00;97654.63;135941;1269;25230;-81
2023/10/21 14:46:22;;;;;;;;;;;;;;;21.28;100.00;97655.03;135940;1272;22515;-81
2023/10/21 14:49:25;;;;;;;;;;;;;;;21.28;100.00;97652.41;135960;1272;22512;-81
2023/10/21 14:52:29;;;;;;;;;;;;;;;21.21;100.00;97649.17;135946;1272;22552;-80
2023/10/21 14:55:32;;;;;;;;;;;;;;;21.10;100.00;97650.11;136048;1272;22523;-81
2023/10/21 14:58:35;;;;;;;;;;;;;;;20.95;100.00;97652.61;136001;1269;24298;-80
2023/10/21 15:01:37;;;;;;;;;;;;;;;20.76;100.00;97656.85;135969;1272;22641;-82
2023/10/21 15:04:40;;;;;;;;;;;;;;;20.64;100.00;97660.92;135768;1272;22518;-82
2023/10/21 15:07:43;;;;;;;;;;;;;;;20.55;100.00;97664.74;135877;1272;23062;-82
2023/10/21 15:10:46;;;;;;;;;;;;;;;20.43;100.00;97666.19;135814;1272;22980;-82
2023/10/21 15:13:48;;;;;;;;;;;;;;;20.28;100.00;97664.37;135831;1272;22507;-82
2023/10/21 15:16:51;;;;;;;;;;;;;;;20.14;100.00;97667.14;135794;1272;22507;-83
2023/10/21 15:19:54;;;;;;;;;;;;;;;20.00;100.00;97667.56;135702;1272;22619;-81
2023/10/21 15:22:59;;;;;;;;;;;;;;;19.88;100.00;97667.40;135835;1272;22515;-81
2023/10/21 15:26:01;;;;;;;;;;;;;;;19.74;100.00;97667.46;135835;1272;22536;-81
2023/10/21 15:29:06;;;;;;;;;;;;;;;19.60;100.00;97671.44;135913;1272;25256;-82
2023/10/21 15:32:09;;;;;;;;;;;;;;;19.48;100.00;97679.69;136006;1272;22526;-83
2023/10/21 15:35:12;;;;;;;;;;;;;;;19.11;100.00;97684.39;135962;1269;22586;-84
2023/10/21 15:38:15;;;;;;;;;;;;;;;18.66;100.00;97689.33;135841;1272;25370;-85
2023/10/21 15:41:17;;;;;;;;;;;;;;;18.29;100.00;97694.77;135882;1272;22618;-82
2023/10/21 15:44:20;;;;;;;;;;;;;;;17.97;100.00;97695.39;135864;1272;22525;-84
2023/10/21 15:47:23;;;;;;;;;;;;;;;17.68;100.00;97697.29;135823;1272;22528;-84